createdAt,value
2019-04-04T00:00:15.983Z,72.91
2019-04-04T00:02:43.364Z,73.10
2019-04-04T00:05:11.797Z,72.97
2019-04-04T00:07:40.230Z,72.58
2019-04-04T00:10:08.672Z,72.29
2019-04-04T00:12:38.957Z,72.34
2019-04-04T00:15:07.607Z,72.85
2019-04-04T00:17:36.046Z,72.71
2019-04-04T00:20:06.410Z,72.63
2019-04-04T00:22:35.492Z,72.67
2019-04-04T00:25:05.616Z,72.66
2019-04-04T00:27:34.061Z,72.57
2019-04-04T00:30:02.490Z,72.65
2019-04-04T00:32:30.927Z,72.92
2019-04-04T00:34:59.840Z,72.80
2019-04-04T00:37:28.800Z,72.14
2019-04-04T00:39:57.292Z,72.33
2019-04-04T00:42:25.709Z,72.12
2019-04-04T00:44:55.779Z,72.83
2019-04-04T00:47:24.321Z,72.80
2019-04-04T00:49:52.767Z,73.38
2019-04-04T00:52:21.190Z,73.81
2019-04-04T00:54:49.616Z,73.89
2019-04-04T00:57:18.792Z,74.17
2019-04-04T00:59:47.739Z,74.23
2019-04-04T01:02:16.161Z,74.58
2019-04-04T01:04:44.597Z,75.00
2019-04-04T01:07:13.017Z,74.72
2019-04-04T01:09:41.437Z,74.64
2019-04-04T01:12:09.888Z,74.32
2019-04-04T01:14:38.325Z,75.06
2019-04-04T01:17:06.771Z,74.96
2019-04-04T01:19:35.648Z,75.08
2019-04-04T01:22:04.099Z,75.14
2019-04-04T01:24:32.523Z,75.08
2019-04-04T01:27:00.963Z,75.35
2019-04-04T01:29:29.410Z,75.02
2019-04-04T01:31:57.833Z,75.17
2019-04-04T01:34:26.260Z,75.19
2019-04-04T01:36:56.410Z,75.38
2019-04-04T01:39:24.835Z,75.21
2019-04-04T01:41:53.265Z,75.42
2019-04-04T01:44:21.695Z,75.34
2019-04-04T01:46:50.122Z,75.24
2019-04-04T01:49:20.839Z,75.16
2019-04-04T01:51:48.713Z,75.22
2019-04-04T01:54:17.128Z,75.29
2019-04-04T01:56:45.556Z,75.33
2019-04-04T01:59:13.977Z,74.87
2019-04-04T02:01:42.421Z,75.66
2019-04-04T02:04:10.843Z,75.81
2019-04-04T02:06:39.261Z,75.80
2019-04-04T02:09:08.235Z,75.73
2019-04-04T02:11:37.608Z,75.92
2019-04-04T02:14:06.466Z,75.75
2019-04-04T02:16:34.875Z,75.66
2019-04-04T02:19:03.447Z,76.02
2019-04-04T02:21:31.868Z,75.98
2019-04-04T02:24:01.598Z,76.04
2019-04-04T02:26:30.491Z,76.16
2019-04-04T02:28:58.924Z,76.20
2019-04-04T02:31:28.995Z,75.99
2019-04-04T02:33:57.440Z,75.93
2019-04-04T02:36:26.034Z,76.30
2019-04-04T02:39:09.376Z,76.50
2019-04-04T02:41:37.815Z,76.65
2019-04-04T02:44:06.668Z,76.75
2019-04-04T02:46:35.111Z,76.68
2019-04-04T02:49:03.523Z,77.16
2019-04-04T02:51:31.940Z,76.93
2019-04-04T02:54:00.406Z,76.83
2019-04-04T02:56:28.831Z,76.49
2019-04-04T02:58:57.276Z,76.17
2019-04-04T03:01:25.702Z,76.44
2019-04-04T03:03:54.119Z,76.38
2019-04-04T03:06:24.411Z,76.49
2019-04-04T03:08:52.777Z,76.52
2019-04-04T03:11:22.155Z,76.43
2019-04-04T03:13:51.233Z,76.41
2019-04-04T03:16:21.505Z,76.16
2019-04-04T03:18:49.810Z,76.35
2019-04-04T03:21:21.957Z,76.85
2019-04-04T03:23:48.414Z,76.56
2019-04-04T03:26:20.087Z,76.90
2019-04-04T03:28:47.030Z,76.89
2019-04-04T03:31:15.453Z,76.88
2019-04-04T03:33:43.922Z,76.88
2019-04-04T03:36:12.385Z,76.91
2019-04-04T03:38:40.820Z,77.43
2019-04-04T03:41:09.247Z,77.21
2019-04-04T03:43:37.668Z,77.18
2019-04-04T03:46:06.209Z,77.70
2019-04-04T03:48:34.589Z,77.50
2019-04-04T03:51:04.821Z,77.46
2019-04-04T03:53:33.190Z,77.76
2019-04-04T03:56:01.689Z,78.00
2019-04-04T03:58:30.129Z,77.97
2019-04-04T04:00:58.751Z,78.07
2019-04-04T04:03:27.178Z,78.09
2019-04-04T04:05:55.605Z,78.22
2019-04-04T04:08:24.075Z,78.03
2019-04-04T04:10:52.829Z,78.41
2019-04-04T04:13:22.541Z,79.04
2019-04-04T04:15:50.971Z,79.81
2019-04-04T04:18:21.247Z,80.09
2019-04-04T04:20:50.374Z,80.43
2019-04-04T04:23:22.986Z,80.30
2019-04-04T04:25:49.129Z,80.36
2019-04-04T04:28:19.780Z,80.17
2019-04-04T04:30:47.698Z,80.21
2019-04-04T04:33:16.136Z,80.06
2019-04-04T04:35:44.554Z,80.05
2019-04-04T04:38:12.986Z,79.93
2019-04-04T04:40:41.398Z,79.92
2019-04-04T04:43:09.876Z,80.02
2019-04-04T04:45:38.294Z,79.93
2019-04-04T04:48:06.742Z,79.95
2019-04-04T04:50:35.175Z,79.76
2019-04-04T04:53:03.592Z,79.70
2019-04-04T04:55:32.014Z,79.55
2019-04-04T04:58:00.529Z,79.41
2019-04-04T05:00:28.947Z,79.38
2019-04-04T05:02:57.368Z,79.31
2019-04-04T05:05:25.834Z,79.30
2019-04-04T05:07:55.043Z,79.26
2019-04-04T05:10:23.882Z,78.93
2019-04-04T05:12:53.036Z,78.90
2019-04-04T05:15:22.110Z,78.90
2019-04-04T05:17:50.532Z,78.50
2019-04-04T05:20:18.971Z,78.52
2019-04-04T05:22:47.407Z,78.73
2019-04-04T05:25:15.822Z,78.53
2019-04-04T05:27:44.244Z,78.39
2019-04-04T05:30:15.913Z,78.34
2019-04-04T05:32:43.177Z,78.17
2019-04-04T05:35:11.656Z,77.97
2019-04-04T05:37:40.093Z,78.02
2019-04-04T05:40:09.453Z,77.87
2019-04-04T05:42:37.895Z,77.70
2019-04-04T05:45:08.061Z,77.58
2019-04-04T05:47:35.751Z,77.42
2019-04-04T05:50:11.126Z,75.87
2019-04-04T05:52:38.119Z,77.05
2019-04-04T05:55:10.065Z,77.21
2019-04-04T05:57:36.698Z,77.30
2019-04-04T06:00:07.471Z,77.06
2019-04-04T06:02:35.898Z,76.95
2019-04-04T06:05:06.046Z,77.04
2019-04-04T06:07:36.398Z,77.05
2019-04-04T06:10:06.620Z,76.99
2019-04-04T06:12:37.485Z,76.96
2019-04-04T06:15:06.765Z,76.68
2019-04-04T06:17:38.801Z,76.88
2019-04-04T06:20:08.008Z,76.63
2019-04-04T06:22:36.449Z,76.62
2019-04-04T06:25:06.351Z,76.83
2019-04-04T06:27:34.758Z,76.49
2019-04-04T06:30:04.108Z,76.46
2019-04-04T06:32:32.562Z,76.21
2019-04-04T06:35:00.975Z,76.33
2019-04-04T06:37:29.421Z,75.95
2019-04-04T06:39:58.895Z,76.02
2019-04-04T06:42:28.258Z,75.62
2019-04-04T06:44:56.794Z,75.47
2019-04-04T06:47:26.349Z,75.62
2019-04-04T06:49:54.896Z,75.11
2019-04-04T06:52:23.591Z,75.02
2019-04-04T06:54:52.204Z,75.33
2019-04-04T06:57:20.623Z,74.87
2019-04-04T06:59:51.075Z,75.00
2019-04-04T07:02:19.264Z,75.24
2019-04-04T07:04:47.672Z,75.33
2019-04-04T07:07:16.329Z,75.45
2019-04-04T07:09:44.994Z,75.47
2019-04-04T07:12:22.321Z,75.39
2019-04-04T07:14:46.003Z,75.01
2019-04-04T07:17:16.331Z,74.73
2019-04-04T07:19:46.135Z,74.49
2019-04-04T07:22:14.203Z,74.10
2019-04-04T07:24:42.647Z,74.19
2019-04-04T07:27:11.068Z,73.84
2019-04-04T07:29:39.496Z,73.61
2019-04-04T07:32:09.542Z,73.55
2019-04-04T07:34:38.066Z,73.96
2019-04-04T07:37:06.516Z,73.64
2019-04-04T07:39:34.942Z,73.20
2019-04-04T07:42:03.388Z,73.23
2019-04-04T07:44:31.814Z,72.50
2019-04-04T07:47:00.304Z,73.31
2019-04-04T07:49:30.621Z,72.37
2019-04-04T07:52:00.150Z,72.10
2019-04-04T07:54:31.748Z,72.47
2019-04-04T07:56:59.674Z,72.07
2019-04-04T07:59:31.059Z,72.20
2019-04-04T08:01:58.965Z,71.85
2019-04-04T08:04:27.388Z,71.17
2019-04-04T08:06:55.815Z,71.55
2019-04-04T08:09:26.197Z,71.11
2019-04-04T08:11:54.439Z,70.59
2019-04-04T08:14:22.866Z,70.14
2019-04-04T08:16:51.285Z,69.59
2019-04-04T08:19:19.736Z,69.08
2019-04-04T08:21:48.177Z,69.49
2019-04-04T08:24:16.589Z,69.27
2019-04-04T08:26:45.307Z,69.37
2019-04-04T08:29:13.784Z,69.28
2019-04-04T08:31:42.289Z,69.01
2019-04-04T08:34:10.721Z,69.20
2019-04-04T08:36:39.150Z,69.19
2019-04-04T08:39:09.601Z,69.24
2019-04-04T08:41:38.024Z,69.14
2019-04-04T08:44:06.442Z,69.30
2019-04-04T08:46:34.919Z,69.15
2019-04-04T08:49:03.337Z,68.90
2019-04-04T08:51:31.794Z,68.30
2019-04-04T08:54:00.227Z,68.26
2019-04-04T08:56:28.690Z,68.31
2019-04-04T08:58:57.119Z,68.27
2019-04-04T09:01:25.540Z,67.07
2019-04-04T09:03:54.005Z,67.58
2019-04-04T09:06:22.423Z,67.70
2019-04-04T09:08:50.883Z,68.44
2019-04-04T09:11:19.449Z,67.92
2019-04-04T09:13:47.868Z,67.50
2019-04-04T09:16:16.313Z,67.41
2019-04-04T09:18:44.740Z,67.51
2019-04-04T09:21:13.206Z,67.56
2019-04-04T09:23:41.871Z,67.53
2019-04-04T09:26:10.293Z,67.60
2019-04-04T09:28:38.746Z,67.03
2019-04-04T09:31:07.192Z,67.22
2019-04-04T09:33:35.632Z,67.18
2019-04-04T09:36:04.062Z,67.22
2019-04-04T09:38:32.501Z,67.08
2019-04-04T09:41:00.928Z,66.90
2019-04-04T09:43:29.357Z,66.41
2019-04-04T09:45:57.774Z,66.43
2019-04-04T09:48:26.209Z,66.47
2019-04-04T09:50:54.650Z,66.74
2019-04-04T09:53:23.071Z,66.24
2019-04-04T09:55:51.513Z,66.35
2019-04-04T09:58:20.128Z,66.62
2019-04-04T10:00:50.347Z,65.87
2019-04-04T10:03:18.838Z,65.81
2019-04-04T10:05:47.275Z,65.42
2019-04-04T10:08:15.697Z,65.74
2019-04-04T10:10:44.164Z,65.24
2019-04-04T10:13:12.590Z,65.38
2019-04-04T10:15:41.009Z,64.86
2019-04-04T10:18:09.448Z,64.80
2019-04-04T10:20:37.875Z,65.46
2019-04-04T10:23:06.307Z,65.36
2019-04-04T10:25:34.731Z,65.43
2019-04-04T10:28:03.160Z,65.53
2019-04-04T10:30:31.601Z,65.04
2019-04-04T10:33:00.027Z,65.16
2019-04-04T10:35:28.455Z,64.88
2019-04-04T10:37:56.889Z,65.42
2019-04-04T10:40:25.316Z,65.31
2019-04-04T10:42:53.751Z,65.59
2019-04-04T10:45:22.178Z,64.98
2019-04-04T10:47:50.621Z,65.39
2019-04-04T10:50:19.050Z,65.14
2019-04-04T10:52:47.477Z,65.16
2019-04-04T10:55:15.931Z,65.20
2019-04-04T10:57:44.522Z,65.54
2019-04-04T11:00:13.929Z,65.36
2019-04-04T11:02:42.414Z,65.77
2019-04-04T11:05:11.518Z,65.50
2019-04-04T11:07:39.974Z,65.35
2019-04-04T11:10:08.940Z,65.20
2019-04-04T11:12:37.369Z,64.96
2019-04-04T11:15:07.533Z,64.72
2019-04-04T11:17:35.968Z,65.01
2019-04-04T11:20:06.413Z,64.82
2019-04-04T11:22:34.852Z,64.95
2019-04-04T11:25:03.351Z,64.95
2019-04-04T11:27:31.846Z,65.36
2019-04-04T11:30:00.238Z,64.86
2019-04-04T11:32:28.786Z,64.26
2019-04-04T11:34:57.217Z,64.30
2019-04-04T11:37:25.652Z,64.34
2019-04-04T11:39:55.195Z,64.20
2019-04-04T11:42:23.800Z,64.19
2019-04-04T11:44:52.233Z,63.92
2019-04-04T11:47:20.662Z,63.99
2019-04-04T11:49:49.198Z,63.99
2019-04-04T11:52:17.638Z,62.86
2019-04-04T11:55:02.045Z,63.14
2019-04-04T11:57:30.473Z,63.03
2019-04-04T11:59:58.918Z,62.95
2019-04-04T12:02:28.727Z,63.18
2019-04-04T12:04:57.949Z,63.20
2019-04-04T12:07:26.520Z,63.04
2019-04-04T12:10:06.783Z,63.17
2019-04-04T12:12:25.115Z,62.62
2019-04-04T12:14:53.583Z,62.89
2019-04-04T12:17:22.005Z,62.73
2019-04-04T12:19:50.438Z,63.03
2019-04-04T12:22:18.858Z,62.58
2019-04-04T12:24:47.287Z,62.31
2019-04-04T12:27:15.720Z,62.13
2019-04-04T12:29:44.175Z,62.62
2019-04-04T12:32:12.570Z,62.59
2019-04-04T12:34:40.997Z,62.59
2019-04-04T12:37:09.431Z,62.58
2019-04-04T12:39:37.894Z,62.37
2019-04-04T12:42:06.391Z,62.15
2019-04-04T12:44:34.835Z,62.60
2019-04-04T12:47:03.331Z,63.18
2019-04-04T12:49:31.751Z,62.78
2019-04-04T12:52:00.181Z,62.74
2019-04-04T12:54:28.629Z,62.80
2019-04-04T12:56:57.057Z,62.77
2019-04-04T12:59:25.549Z,63.09
2019-04-04T13:01:54.066Z,63.40
2019-04-04T13:04:30.926Z,63.37
2019-04-04T13:06:52.775Z,63.38
2019-04-04T13:09:21.313Z,63.13
2019-04-04T13:11:49.741Z,63.27
2019-04-04T13:14:18.412Z,63.41
2019-04-04T13:16:46.964Z,63.48
2019-04-04T13:19:15.615Z,63.04
2019-04-04T13:21:44.217Z,63.11
2019-04-04T13:24:12.722Z,62.97
2019-04-04T13:26:41.422Z,62.73
2019-04-04T13:29:11.714Z,62.53
2019-04-04T13:31:42.169Z,62.86
2019-04-04T13:34:10.802Z,62.89
2019-04-04T13:36:42.649Z,62.70
2019-04-04T13:39:11.740Z,62.31
2019-04-04T13:41:40.171Z,62.73
2019-04-04T13:44:08.620Z,62.52
2019-04-04T13:46:37.064Z,62.39
2019-04-04T13:49:05.530Z,62.16
2019-04-04T13:51:34.003Z,62.00
2019-04-04T13:54:02.620Z,61.87
2019-04-04T13:56:31.045Z,61.77
2019-04-04T13:59:02.471Z,61.75
2019-04-04T14:01:29.629Z,61.61
2019-04-04T14:03:58.049Z,61.84
2019-04-04T14:06:26.747Z,61.62
2019-04-04T14:08:55.207Z,61.60
2019-04-04T14:11:23.655Z,61.25
2019-04-04T14:13:52.073Z,61.17
2019-04-04T14:16:21.555Z,61.21
2019-04-04T14:18:50.003Z,61.07
2019-04-04T14:21:18.399Z,61.05
2019-04-04T14:23:46.831Z,60.80
2019-04-04T14:26:15.348Z,60.86
2019-04-04T14:28:43.865Z,60.58
2019-04-04T14:31:12.538Z,59.94
2019-04-04T14:33:40.973Z,59.76
2019-04-04T14:36:09.396Z,59.58
2019-04-04T14:38:38.103Z,58.57
2019-04-04T14:41:11.446Z,58.00
2019-04-04T14:43:36.832Z,57.56
2019-04-04T14:46:05.548Z,56.84
2019-04-04T14:48:33.976Z,56.39
2019-04-04T14:51:02.424Z,55.81
2019-04-04T14:53:30.868Z,56.31
2019-04-04T14:55:59.311Z,55.83
2019-04-04T14:58:30.555Z,56.29
2019-04-04T15:00:57.905Z,55.87
2019-04-04T15:03:26.316Z,55.41
2019-04-04T15:05:54.761Z,55.38
2019-04-04T15:08:23.196Z,55.97
2019-04-04T15:10:51.644Z,55.97
2019-04-04T15:13:20.091Z,56.48
2019-04-04T15:16:11.294Z,56.29
2019-04-04T15:18:39.678Z,56.14
2019-04-04T15:21:09.614Z,56.66
2019-04-04T15:23:38.049Z,56.96
2019-04-04T15:26:09.541Z,56.70
2019-04-04T15:28:36.802Z,57.07
2019-04-04T15:31:05.706Z,57.19
2019-04-04T15:33:34.181Z,57.36
2019-04-04T15:36:02.613Z,57.34
2019-04-04T15:38:31.049Z,57.19
2019-04-04T15:40:59.575Z,57.82
2019-04-04T15:43:28.000Z,58.25
2019-04-04T15:45:56.430Z,58.21
2019-04-04T15:48:24.858Z,58.45
2019-04-04T15:50:53.635Z,58.47
2019-04-04T15:53:22.069Z,58.45
2019-04-04T15:55:50.494Z,58.68
2019-04-04T15:58:18.972Z,59.32
2019-04-04T16:00:47.396Z,59.59
2019-04-04T16:03:15.848Z,59.74
2019-04-04T16:05:44.253Z,59.89
2019-04-04T16:08:12.685Z,60.58
2019-04-04T16:10:41.125Z,60.88
2019-04-04T16:13:09.599Z,60.83
2019-04-04T16:15:38.035Z,61.17
2019-04-04T16:18:06.492Z,61.00
2019-04-04T16:20:34.944Z,60.81
2019-04-04T16:23:03.368Z,61.92
2019-04-04T16:25:31.813Z,62.09
2019-04-04T16:28:00.245Z,62.30
2019-04-04T16:30:28.688Z,62.19
2019-04-04T16:32:57.137Z,62.25
2019-04-04T16:35:25.551Z,62.63
2019-04-04T16:37:53.988Z,62.69
2019-04-04T16:40:22.549Z,62.72
2019-04-04T16:42:50.985Z,63.12
2019-04-04T16:45:19.424Z,63.33
2019-04-04T16:47:47.863Z,63.52
2019-04-04T16:50:16.282Z,63.72
2019-04-04T16:52:44.713Z,64.10
2019-04-04T16:55:13.287Z,64.15
2019-04-04T16:57:43.266Z,64.59
2019-04-04T17:00:13.908Z,64.81
2019-04-04T17:02:41.702Z,65.17
2019-04-04T17:05:11.169Z,62.60
2019-04-04T17:07:39.980Z,65.36
2019-04-04T17:10:09.161Z,65.74
2019-04-04T17:12:37.587Z,65.95
2019-04-04T17:15:07.461Z,66.50
2019-04-04T17:17:35.171Z,67.12
2019-04-04T17:20:05.513Z,64.52
2019-04-04T17:22:33.937Z,67.23
2019-04-04T17:25:02.378Z,67.48
2019-04-04T17:27:30.814Z,68.04
2019-04-04T17:29:59.259Z,68.34
2019-04-04T17:32:27.703Z,68.88
2019-04-04T17:34:56.136Z,68.96
2019-04-04T17:37:26.659Z,69.22
2019-04-04T17:39:55.687Z,69.26
2019-04-04T17:42:30.215Z,69.76
2019-04-04T17:44:54.863Z,69.84
2019-04-04T17:47:23.839Z,69.81
2019-04-04T17:49:52.490Z,70.44
2019-04-04T17:52:20.975Z,70.38
2019-04-04T17:54:49.962Z,70.65
2019-04-04T17:57:19.037Z,70.82
2019-04-04T17:59:47.585Z,70.98
2019-04-04T18:02:16.018Z,71.34
2019-04-04T18:04:48.560Z,71.44
2019-04-04T18:07:14.611Z,71.44
2019-04-04T18:09:45.458Z,71.93
2019-04-04T18:12:12.499Z,72.01
2019-04-04T18:14:40.885Z,69.05
2019-04-04T18:17:09.309Z,71.81
2019-04-04T18:19:37.774Z,72.29
2019-04-04T18:22:06.271Z,72.37
2019-04-04T18:24:34.729Z,72.75
2019-04-04T18:27:03.168Z,72.79
2019-04-04T18:29:31.608Z,73.00
2019-04-04T18:32:00.074Z,73.28
2019-04-04T18:34:28.513Z,73.42
2019-04-04T18:36:56.986Z,73.45
2019-04-04T18:39:26.628Z,73.43
2019-04-04T18:41:55.235Z,73.63
2019-04-04T18:44:23.663Z,73.62
2019-04-04T18:46:52.090Z,73.60
2019-04-04T18:49:20.552Z,73.63
2019-04-04T18:51:48.986Z,73.79
2019-04-04T18:54:17.422Z,73.57
2019-04-04T18:56:45.858Z,73.86
2019-04-04T18:59:14.305Z,73.76
2019-04-04T19:01:42.730Z,73.57
2019-04-04T19:04:11.170Z,73.80
2019-04-04T19:06:39.604Z,74.08
2019-04-04T19:09:15.010Z,73.81
2019-04-04T19:11:41.627Z,74.17
2019-04-04T19:14:10.103Z,74.19
2019-04-04T19:16:38.563Z,74.04
2019-04-04T19:19:07.060Z,74.48
2019-04-04T19:21:35.541Z,74.54
2019-04-04T19:24:04.209Z,74.44
2019-04-04T19:26:32.702Z,74.31
2019-04-04T19:29:01.254Z,74.44
2019-04-04T19:31:29.690Z,74.67
2019-04-04T19:33:58.125Z,74.81
2019-04-04T19:36:26.622Z,74.97
2019-04-04T19:38:55.076Z,74.94
2019-04-04T19:41:23.503Z,74.83
2019-04-04T19:43:51.920Z,74.91
2019-04-04T19:46:20.355Z,74.94
2019-04-04T19:48:48.808Z,75.14
2019-04-04T19:51:17.224Z,75.14
2019-04-04T19:53:45.663Z,75.28
2019-04-04T19:56:14.107Z,75.40
2019-04-04T19:58:42.534Z,75.47
2019-04-04T20:01:10.968Z,75.58
2019-04-04T20:03:39.422Z,75.72
2019-04-04T20:06:07.874Z,75.91
2019-04-04T20:08:36.296Z,75.96
2019-04-04T20:11:04.977Z,76.32
2019-04-04T20:13:33.397Z,76.27
2019-04-04T20:16:01.842Z,76.41
2019-04-04T20:18:30.264Z,76.39
2019-04-04T20:20:58.713Z,76.72
2019-04-04T20:23:27.193Z,76.92
2019-04-04T20:25:55.670Z,77.01
2019-04-04T20:28:24.079Z,77.05
2019-04-04T20:30:52.507Z,77.42
2019-04-04T20:33:20.931Z,77.48
2019-04-04T20:35:49.379Z,77.43
2019-04-04T20:38:17.896Z,77.22
2019-04-04T20:40:46.345Z,77.47
2019-04-04T20:43:14.785Z,77.95
2019-04-04T20:45:43.210Z,78.07
2019-04-04T20:48:11.711Z,78.05
2019-04-04T20:50:40.157Z,77.79
2019-04-04T20:53:08.577Z,77.73
2019-04-04T20:55:36.996Z,77.77
2019-04-04T20:58:05.462Z,77.94
2019-04-04T21:00:33.885Z,77.94
2019-04-04T21:03:02.316Z,77.91
2019-04-04T21:05:30.744Z,78.14
2019-04-04T21:07:59.185Z,78.30
2019-04-04T21:10:27.623Z,78.36
2019-04-04T21:12:56.234Z,78.63
2019-04-04T21:15:24.654Z,78.57
2019-04-04T21:17:53.100Z,78.10
2019-04-04T21:20:21.559Z,77.95
2019-04-04T21:22:49.980Z,77.63
2019-04-04T21:25:18.425Z,77.92
2019-04-04T21:27:46.897Z,77.85
2019-04-04T21:30:15.760Z,77.94
2019-04-04T21:32:44.196Z,78.05
2019-04-04T21:35:12.629Z,77.92
2019-04-04T21:37:41.063Z,78.39
2019-04-04T21:40:09.549Z,78.10
2019-04-04T21:42:37.990Z,78.31
2019-04-04T21:45:07.358Z,78.56
2019-04-04T21:47:36.150Z,78.54
2019-04-04T21:50:07.024Z,78.62
2019-04-04T21:52:36.013Z,78.85
2019-04-04T21:55:08.161Z,78.82
2019-04-04T21:57:36.608Z,78.68
2019-04-04T22:00:07.773Z,78.71
2019-04-04T22:02:36.207Z,79.09
2019-04-04T22:05:07.347Z,79.07
2019-04-04T22:07:35.812Z,78.90
2019-04-04T22:10:08.763Z,78.72
2019-04-04T22:12:37.224Z,78.85
2019-04-04T22:15:08.961Z,79.24
2019-04-04T22:17:37.392Z,79.24
2019-04-04T22:20:06.848Z,79.51
2019-04-04T22:22:35.315Z,79.34
2019-04-04T22:25:05.772Z,79.75
2019-04-04T22:27:34.223Z,79.19
2019-04-04T22:30:02.742Z,79.68
2019-04-04T22:32:31.204Z,79.77
2019-04-04T22:34:59.656Z,79.41
2019-04-04T22:37:28.090Z,79.52
2019-04-04T22:39:56.511Z,79.24
2019-04-04T22:42:24.937Z,79.60
2019-04-04T22:44:53.369Z,79.38
2019-04-04T22:47:21.826Z,79.31
2019-04-04T22:49:50.318Z,79.52
2019-04-04T22:52:18.738Z,79.40
2019-04-04T22:54:47.193Z,79.41
2019-04-04T22:57:15.664Z,79.27
2019-04-04T22:59:44.124Z,79.31
2019-04-04T23:02:12.572Z,78.76
2019-04-04T23:04:41.026Z,79.06
2019-04-04T23:07:09.494Z,79.01
2019-04-04T23:09:37.930Z,79.03
2019-04-04T23:12:06.386Z,79.07
2019-04-04T23:14:47.093Z,79.31
2019-04-04T23:17:04.985Z,79.18
2019-04-04T23:19:33.458Z,78.97
2019-04-04T23:22:01.910Z,78.86
2019-04-04T23:24:30.324Z,78.93
2019-04-04T23:26:58.804Z,79.20
2019-04-04T23:29:27.316Z,79.10
2019-04-04T23:31:55.777Z,78.77
2019-04-04T23:34:24.273Z,78.92
2019-04-04T23:36:52.703Z,78.81
2019-04-04T23:39:21.241Z,78.72
2019-04-04T23:41:49.677Z,79.01
2019-04-04T23:44:18.284Z,78.82
2019-04-04T23:46:46.739Z,78.68
2019-04-04T23:49:15.207Z,78.70
2019-04-04T23:51:43.812Z,78.92
2019-04-04T23:54:12.305Z,78.72
2019-04-04T23:56:40.838Z,78.76
2019-04-04T23:59:09.291Z,78.24
